createdAt,value
2018-01-21T00:02:04.754Z,99879.89
2018-01-21T00:04:30.528Z,99883.80
2018-01-21T00:06:56.361Z,99881.14
2018-01-21T00:09:22.133Z,99888.81
2018-01-21T00:11:48.757Z,99884.28
2018-01-21T00:14:14.538Z,99884.15
2018-01-21T00:16:40.329Z,99881.51
2018-01-21T00:19:06.109Z,99885.55
2018-01-21T00:21:31.933Z,99881.49
2018-01-21T00:23:58.014Z,99876.17
2018-01-21T00:26:24.065Z,99888.67
2018-01-21T00:28:49.846Z,99887.19
2018-01-21T00:31:15.765Z,99889.88
2018-01-21T00:33:41.537Z,99889.23
2018-01-21T00:36:07.317Z,99895.36
2018-01-21T00:38:33.093Z,99889.67
2018-01-21T00:40:58.874Z,99895.50
2018-01-21T00:43:24.644Z,99903.33
2018-01-21T00:45:50.556Z,99900.31
2018-01-21T00:48:17.382Z,99902.34
2018-01-21T00:50:44.165Z,99903.88
2018-01-21T00:53:10.868Z,99897.94
2018-01-21T00:55:36.681Z,99909.67
2018-01-21T00:58:02.510Z,99906.71
2018-01-21T01:00:29.257Z,99905.92
2018-01-21T01:02:55.025Z,99917.75
2018-01-21T01:05:21.037Z,99913.41
2018-01-21T01:07:47.069Z,99916.28
2018-01-21T01:10:12.841Z,99923.14
2018-01-21T01:12:38.721Z,99928.06
2018-01-21T01:15:04.497Z,99930.50
2018-01-21T01:17:30.276Z,99934.71
2018-01-21T01:19:56.057Z,99937.14
2018-01-21T01:22:21.883Z,99938.74
2018-01-21T01:24:47.713Z,99941.17
2018-01-21T01:27:13.497Z,99946.66
2018-01-21T01:29:40.281Z,99947.93
2018-01-21T01:32:07.076Z,99955.73
2018-01-21T01:34:33.862Z,99955.42
2018-01-21T01:36:59.686Z,99955.23
2018-01-21T01:39:25.461Z,99965.36
2018-01-21T01:41:51.229Z,99972.36
2018-01-21T01:44:17.065Z,99972.98
2018-01-21T01:46:42.956Z,99971.08
2018-01-21T01:49:08.972Z,99969.39
2018-01-21T01:51:34.786Z,99971.78
2018-01-21T01:54:00.613Z,99981.86
2018-01-21T01:56:26.397Z,99981.75
2018-01-21T01:58:52.167Z,99984.94
2018-01-21T02:01:17.938Z,99984.87
2018-01-21T02:03:43.709Z,99990.23
2018-01-21T02:06:09.699Z,99991.24
2018-01-21T02:08:35.480Z,99990.61
2018-01-21T02:11:01.378Z,100003.33
2018-01-21T02:13:27.167Z,100001.39
2018-01-21T02:15:52.940Z,100012.51
2018-01-21T02:18:18.717Z,100004.50
2018-01-21T02:20:44.625Z,100010.50
2018-01-21T02:23:10.405Z,100011.89
2018-01-21T02:25:36.893Z,100015.77
2018-01-21T02:28:02.925Z,100017.64
2018-01-21T02:30:28.937Z,100017.02
2018-01-21T02:32:54.724Z,100022.34
2018-01-21T02:38:06.069Z,100030.14
2018-01-21T02:40:31.851Z,100034.05
2018-01-21T02:42:57.637Z,100032.50
2018-01-21T02:45:23.421Z,100035.92
2018-01-21T02:47:49.491Z,100031.66
2018-01-21T02:50:15.273Z,100037.17
2018-01-21T02:52:41.061Z,100044.41
2018-01-21T02:55:06.853Z,100046.63
2018-01-21T02:57:32.669Z,100046.49
2018-01-21T02:59:58.453Z,100052.88
2018-01-21T03:02:24.237Z,100058.76
2018-01-21T03:04:50.038Z,100056.88
2018-01-21T03:07:15.946Z,100057.03
2018-01-21T03:09:41.970Z,100058.66
2018-01-21T03:12:07.770Z,100056.82
2018-01-21T03:14:33.549Z,100062.44
2018-01-21T03:16:59.385Z,100065.17
2018-01-21T03:19:25.165Z,100072.97
2018-01-21T03:21:50.949Z,100074.97
2018-01-21T03:24:16.744Z,100078.50
2018-01-21T03:26:42.530Z,100082.95
2018-01-21T03:29:08.314Z,100083.52
2018-01-21T03:31:34.098Z,100085.36
2018-01-21T03:33:59.906Z,100092.80
2018-01-21T03:36:25.693Z,100095.67
2018-01-21T03:38:51.477Z,100100.42
2018-01-21T03:41:17.259Z,100102.50
2018-01-21T03:43:43.206Z,100102.95
2018-01-21T03:46:08.990Z,100103.33
2018-01-21T03:48:34.773Z,100104.52
2018-01-21T03:51:00.598Z,100115.61
2018-01-21T03:53:26.422Z,100125.20
2018-01-21T03:55:52.312Z,100127.28
2018-01-21T03:58:18.117Z,100125.29
2018-01-21T04:00:43.913Z,100122.59
2018-01-21T04:03:09.689Z,100125.29
2018-01-21T04:05:35.473Z,100131.25
2018-01-21T04:08:01.412Z,100131.91
2018-01-21T04:10:27.261Z,100134.98
2018-01-21T04:12:53.065Z,100136.22
2018-01-21T04:15:18.858Z,100144.72
2018-01-21T04:17:44.636Z,100140.65
2018-01-21T04:20:10.417Z,100148.02
2018-01-21T04:22:36.205Z,100144.02
2018-01-21T04:25:01.993Z,100152.02
2018-01-21T04:27:27.811Z,100157.34
2018-01-21T04:29:53.873Z,100156.84
2018-01-21T04:32:19.657Z,100157.48
2018-01-21T04:34:45.437Z,100156.38
2018-01-21T04:37:11.225Z,100161.36
2018-01-21T04:39:37.013Z,100168.11
2018-01-21T04:42:02.788Z,100168.93
2018-01-21T04:44:28.564Z,100165.28
2018-01-21T04:46:54.352Z,100180.67
2018-01-21T04:49:20.133Z,100184.39
2018-01-21T04:51:45.990Z,100195.39
2018-01-21T04:54:18.796Z,100191.38
2018-01-21T04:56:44.586Z,100198.61
2018-01-21T04:59:10.493Z,100198.25
2018-01-21T05:01:36.277Z,100204.05
2018-01-21T05:04:02.093Z,100207.16
2018-01-21T05:06:27.877Z,100213.36
2018-01-21T05:08:53.668Z,100212.06
2018-01-21T05:11:19.484Z,100216.86
2018-01-21T05:13:45.401Z,100221.95
2018-01-21T05:16:11.254Z,100230.77
2018-01-21T05:18:37.072Z,100224.81
2018-01-21T05:21:02.893Z,100234.52
2018-01-21T05:23:28.668Z,100235.96
2018-01-21T05:25:54.657Z,100242.28
2018-01-21T05:28:20.433Z,100247.92
2018-01-21T05:30:46.415Z,100251.03
2018-01-21T05:33:12.225Z,100253.17
2018-01-21T05:35:38.013Z,100255.59
2018-01-21T05:38:03.902Z,100261.86
2018-01-21T05:40:29.692Z,100266.63
2018-01-21T05:42:55.477Z,100270.73
2018-01-21T05:45:21.267Z,100271.37
2018-01-21T05:47:47.053Z,100274.63
2018-01-21T05:50:12.877Z,100284.13
2018-01-21T05:52:38.693Z,100292.99
2018-01-21T05:55:04.499Z,100298.55
2018-01-21T05:57:30.292Z,100297.96
2018-01-21T05:59:56.078Z,100304.16
2018-01-21T06:02:21.906Z,100303.11
2018-01-21T06:04:47.701Z,100311.47
2018-01-21T06:07:13.518Z,100313.44
2018-01-21T06:09:39.301Z,100316.45
2018-01-21T06:12:05.074Z,100315.77
2018-01-21T06:14:30.993Z,100325.48
2018-01-21T06:16:56.772Z,100325.43
2018-01-21T06:19:22.609Z,100330.69
2018-01-21T06:21:48.389Z,100339.00
2018-01-21T06:24:14.221Z,100339.70
2018-01-21T06:26:40.206Z,100343.02
2018-01-21T06:29:05.984Z,100343.02
2018-01-21T06:31:31.806Z,100353.37
2018-01-21T06:33:57.609Z,100357.09
2018-01-21T06:36:23.389Z,100362.47
2018-01-21T06:38:49.178Z,100368.32
2018-01-21T06:41:14.960Z,100372.05
2018-01-21T06:43:40.758Z,100374.55
2018-01-21T06:46:06.585Z,100386.69
2018-01-21T06:48:32.365Z,100394.53
2018-01-21T06:50:58.136Z,100401.59
2018-01-21T06:53:23.919Z,100408.02
2018-01-21T06:55:49.693Z,100405.09
2018-01-21T06:58:15.549Z,100412.16
2018-01-21T07:00:41.365Z,100421.23
2018-01-21T07:03:07.141Z,100426.22
2018-01-21T07:05:32.932Z,100434.28
2018-01-21T07:07:58.878Z,100435.88
2018-01-21T07:10:24.661Z,100446.36
2018-01-21T07:12:50.500Z,100445.49
2018-01-21T07:15:16.287Z,100446.87
2018-01-21T07:17:42.078Z,100450.34
2018-01-21T07:20:07.978Z,100455.06
2018-01-21T07:22:33.758Z,100457.28
2018-01-21T07:24:59.577Z,100455.55
2018-01-21T07:27:25.382Z,100461.54
2018-01-21T07:29:51.304Z,100464.02
2018-01-21T07:32:17.082Z,100465.82
2018-01-21T07:34:43.026Z,100475.59
2018-01-21T07:37:08.871Z,100483.19
2018-01-21T07:39:34.689Z,100483.70
2018-01-21T07:42:00.608Z,100488.45
2018-01-21T07:44:26.389Z,100494.69
2018-01-21T07:46:52.234Z,100495.27
2018-01-21T07:49:18.066Z,100502.76
2018-01-21T07:51:44.005Z,100508.44
2018-01-21T07:54:09.946Z,100514.86
2018-01-21T07:56:35.732Z,100520.64
2018-01-21T07:59:01.540Z,100530.88
2018-01-21T08:01:27.339Z,100543.14
2018-01-21T08:03:53.121Z,100545.91
2018-01-21T08:06:18.936Z,100550.91
2018-01-21T08:08:44.829Z,100551.80
2018-01-21T08:11:10.705Z,100559.00
2018-01-21T08:13:36.542Z,100558.68
2018-01-21T08:16:02.507Z,100564.92
2018-01-21T08:18:28.294Z,100566.30
2018-01-21T08:20:54.128Z,100573.84
2018-01-21T08:23:19.905Z,100584.58
2018-01-21T08:25:45.773Z,100587.17
2018-01-21T08:28:11.615Z,100596.00
2018-01-21T08:30:37.527Z,100611.53
2018-01-21T08:33:03.322Z,100615.08
2018-01-21T08:38:33.302Z,100627.50
2018-01-21T08:41:05.253Z,100632.11
2018-01-21T08:43:31.301Z,100629.12
2018-01-21T08:45:57.202Z,100638.77
2018-01-21T08:48:23.034Z,100636.26
2018-01-21T08:50:48.833Z,100643.35
2018-01-21T08:53:16.282Z,100650.17
2018-01-21T08:55:42.106Z,100656.63
2018-01-21T08:58:08.035Z,100663.16
2018-01-21T09:00:33.808Z,100659.95
2018-01-21T09:02:59.765Z,100667.24
2018-01-21T09:05:25.674Z,100667.89
2018-01-21T09:07:51.462Z,100679.05
2018-01-21T09:10:17.242Z,100684.87
2018-01-21T09:12:43.105Z,100691.68
2018-01-21T09:15:08.897Z,100694.04
2018-01-21T09:17:34.927Z,100700.75
2018-01-21T09:20:00.813Z,100701.16
2018-01-21T09:22:26.779Z,100701.50
2018-01-21T09:24:52.661Z,100708.02
2018-01-21T09:27:18.442Z,100711.37
2018-01-21T09:29:44.304Z,100719.94
2018-01-21T09:32:10.270Z,100723.25
2018-01-21T09:34:36.146Z,100724.09
2018-01-21T09:37:01.922Z,100722.64
2018-01-21T09:39:27.892Z,100734.35
2018-01-21T09:41:53.665Z,100737.50
2018-01-21T09:44:19.627Z,100741.53
2018-01-21T09:46:45.401Z,100745.36
2018-01-21T09:49:11.189Z,100741.98
2018-01-21T09:51:36.974Z,100750.51
2018-01-21T09:54:02.758Z,100752.40
2018-01-21T09:56:28.570Z,100754.92
2018-01-21T09:58:54.354Z,100764.08
2018-01-21T10:01:20.273Z,100759.58
2018-01-21T10:03:46.046Z,100764.91
2018-01-21T10:06:11.881Z,100770.52
2018-01-21T10:08:37.936Z,100767.30
2018-01-21T10:11:03.859Z,100772.13
2018-01-21T10:13:30.078Z,100774.88
2018-01-21T10:15:55.869Z,100782.92
2018-01-21T10:18:21.702Z,100786.92
2018-01-21T10:20:47.485Z,100794.30
2018-01-21T10:23:13.270Z,100795.28
2018-01-21T10:25:39.057Z,100794.75
2018-01-21T10:28:05.009Z,100801.50
2018-01-21T10:30:30.932Z,100801.33
2018-01-21T10:32:56.855Z,100809.36
2018-01-21T10:35:23.045Z,100816.36
2018-01-21T10:37:48.826Z,100816.77
2018-01-21T10:40:14.730Z,100819.44
2018-01-21T10:42:40.526Z,100818.00
2018-01-21T10:45:06.306Z,100828.10
2018-01-21T10:47:32.083Z,100829.11
2018-01-21T10:49:58.396Z,100831.88
2018-01-21T10:52:24.210Z,100840.36
2018-01-21T10:54:50.081Z,100841.31
2018-01-21T10:57:15.882Z,100846.89
2018-01-21T10:59:41.834Z,100855.14
2018-01-21T11:02:07.613Z,100849.38
2018-01-21T11:04:33.401Z,100854.02
2018-01-21T11:06:59.354Z,100860.92
2018-01-21T11:09:25.138Z,100857.31
2018-01-21T11:11:50.977Z,100859.11
2018-01-21T11:14:16.785Z,100865.34
2018-01-21T11:16:42.635Z,100870.08
2018-01-21T11:19:08.433Z,100873.95
2018-01-21T11:21:34.354Z,100879.88
2018-01-21T11:24:00.318Z,100879.64
2018-01-21T11:26:26.102Z,100884.26
2018-01-21T11:28:52.046Z,100886.53
2018-01-21T11:31:18.105Z,100888.30
2018-01-21T11:33:43.967Z,100895.05
2018-01-21T11:36:09.789Z,100893.81
2018-01-21T11:38:35.622Z,100896.34
2018-01-21T11:41:01.409Z,100899.02
2018-01-21T11:43:27.238Z,100898.43
2018-01-21T11:45:53.043Z,100909.64
2018-01-21T11:48:19.052Z,100916.52
2018-01-21T11:50:44.856Z,100913.86
2018-01-21T11:53:10.710Z,100920.16
2018-01-21T11:55:37.647Z,100923.69
2018-01-21T11:58:04.298Z,100931.92
2018-01-21T12:00:30.133Z,100930.77
2018-01-21T12:02:55.962Z,100935.77
2018-01-21T12:05:21.781Z,100937.36
2018-01-21T12:07:47.614Z,100939.00
2018-01-21T12:10:13.583Z,100943.50
2018-01-21T12:12:39.372Z,100942.08
2018-01-21T12:15:05.198Z,100938.73
2018-01-21T12:17:31.110Z,100942.73
2018-01-21T12:19:56.929Z,100941.72
2018-01-21T12:22:22.755Z,100953.04
2018-01-21T12:24:48.574Z,100957.12
2018-01-21T12:27:14.379Z,100953.84
2018-01-21T12:29:40.309Z,100960.69
2018-01-21T12:32:06.288Z,100959.88
2018-01-21T12:34:32.485Z,100965.68
2018-01-21T12:36:58.382Z,100967.16
2018-01-21T12:39:24.194Z,100972.51
2018-01-21T12:41:50.014Z,100980.55
2018-01-21T12:44:15.793Z,100981.11
2018-01-21T12:46:41.622Z,100988.70
2018-01-21T12:49:07.426Z,100995.03
2018-01-21T12:51:33.429Z,100992.42
2018-01-21T12:53:59.227Z,100996.66
2018-01-21T12:56:25.017Z,100995.58
2018-01-21T12:58:50.837Z,101001.78
2018-01-21T13:01:16.621Z,100999.93
2018-01-21T13:03:42.442Z,100998.03
2018-01-21T13:06:08.225Z,100998.89
2018-01-21T13:08:34.043Z,101003.62
2018-01-21T13:10:59.954Z,101000.41
2018-01-21T13:13:25.953Z,101008.86
2018-01-21T13:15:51.985Z,101006.09
2018-01-21T13:18:17.766Z,101010.83
2018-01-21T13:20:43.583Z,101012.67
2018-01-21T13:23:09.386Z,101017.64
2018-01-21T13:25:35.222Z,101029.18
2018-01-21T13:28:01.007Z,101027.75
2018-01-21T13:30:26.818Z,101031.42
2018-01-21T13:32:52.893Z,101034.95
2018-01-21T13:35:18.678Z,101035.23
2018-01-21T13:37:44.509Z,101045.18
2018-01-21T13:40:10.303Z,101048.99
2018-01-21T13:42:36.089Z,101054.20
2018-01-21T13:45:01.952Z,101061.44
2018-01-21T13:47:27.965Z,101068.52
2018-01-21T13:49:53.747Z,101070.75
2018-01-21T13:52:19.524Z,101077.91
2018-01-21T13:54:45.487Z,101072.45
2018-01-21T13:57:11.614Z,101086.77
2018-01-21T13:59:37.393Z,101090.42
2018-01-21T14:02:03.247Z,101085.94
2018-01-21T14:04:29.201Z,101095.10
2018-01-21T14:06:55.005Z,101098.50
2018-01-21T14:09:20.960Z,101106.41
2018-01-21T14:11:46.793Z,101109.39
2018-01-21T14:14:12.572Z,101115.50
2018-01-21T14:16:38.370Z,101117.31
2018-01-21T14:19:04.270Z,101119.69
2018-01-21T14:21:30.085Z,101121.23
2018-01-21T14:23:55.989Z,101128.65
2018-01-21T14:26:21.831Z,101135.03
2018-01-21T14:28:47.681Z,101141.31
2018-01-21T14:31:13.649Z,101136.45
2018-01-21T14:33:39.464Z,101137.06
2018-01-21T14:36:05.473Z,101140.34
2018-01-21T14:38:31.290Z,101143.92
2018-01-21T14:40:57.073Z,101146.25
2018-01-21T14:43:22.850Z,101155.73
2018-01-21T14:45:48.670Z,101159.03
2018-01-21T14:48:14.442Z,101159.52
2018-01-21T14:50:40.260Z,101163.77
2018-01-21T14:53:06.042Z,101167.06
2018-01-21T14:55:32.097Z,101167.88
2018-01-21T14:57:57.976Z,101166.92
2018-01-21T15:00:23.805Z,101172.69
2018-01-21T15:02:49.591Z,101176.98
2018-01-21T15:05:15.373Z,101171.66
2018-01-21T15:07:41.208Z,101173.65
2018-01-21T15:10:07.000Z,101173.22
2018-01-21T15:12:32.821Z,101177.64
2018-01-21T15:14:58.897Z,101182.13
2018-01-21T15:17:24.712Z,101184.19
2018-01-21T15:19:50.648Z,101185.61
2018-01-21T15:22:16.465Z,101190.52
2018-01-21T15:24:42.277Z,101188.41
2018-01-21T15:27:08.063Z,101192.31
2018-01-21T15:29:33.876Z,101191.30
2018-01-21T15:31:59.660Z,101192.50
2018-01-21T15:34:25.474Z,101197.82
2018-01-21T15:36:51.275Z,101206.32
2018-01-21T15:39:17.081Z,101211.10
2018-01-21T15:41:42.897Z,101209.55
2018-01-21T15:44:08.676Z,101214.16
2018-01-21T15:46:34.502Z,101213.86
2018-01-21T15:49:00.317Z,101221.47
2018-01-21T15:51:26.156Z,101223.58
2018-01-21T15:53:51.977Z,101222.09
2018-01-21T15:56:18.121Z,101221.70
2018-01-21T15:58:43.919Z,101223.09
2018-01-21T16:01:09.697Z,101228.69
2018-01-21T16:03:35.717Z,101231.11
2018-01-21T16:06:01.558Z,101238.08
2018-01-21T16:08:27.341Z,101238.33
2018-01-21T16:10:53.199Z,101243.51
2018-01-21T16:13:19.133Z,101248.89
2018-01-21T16:15:44.941Z,101256.55
2018-01-21T16:18:10.754Z,101259.53
2018-01-21T16:20:36.539Z,101264.41
2018-01-21T16:23:02.382Z,101267.05
2018-01-21T16:25:28.303Z,101267.15
2018-01-21T16:27:54.085Z,101274.05
2018-01-21T16:30:19.913Z,101277.80
2018-01-21T16:32:45.695Z,101280.03
2018-01-21T16:35:11.464Z,101285.72
2018-01-21T16:37:43.474Z,101290.80
2018-01-21T16:40:09.253Z,101288.54
2018-01-21T16:42:35.044Z,101299.48
2018-01-21T16:45:00.829Z,101301.22
2018-01-21T16:47:26.672Z,101302.66
2018-01-21T16:49:52.471Z,101299.45
2018-01-21T16:52:18.339Z,101304.22
2018-01-21T16:54:44.121Z,101303.50
2018-01-21T16:57:10.004Z,101297.73
2018-01-21T16:59:35.784Z,101305.11
2018-01-21T17:02:01.622Z,101306.80
2018-01-21T17:04:27.445Z,101305.77
2018-01-21T17:06:53.237Z,101311.00
2018-01-21T17:09:19.019Z,101308.77
2018-01-21T17:11:44.805Z,101318.39
2018-01-21T17:14:10.590Z,101314.12
2018-01-21T17:16:36.372Z,101314.48
2018-01-21T17:19:02.152Z,101321.30
2018-01-21T17:21:27.933Z,101317.31
2018-01-21T17:23:53.881Z,101317.91
2018-01-21T17:26:19.694Z,101316.25
2018-01-21T17:28:45.598Z,101323.38
2018-01-21T17:31:11.390Z,101320.50
2018-01-21T17:33:37.579Z,101317.23
2018-01-21T17:36:03.561Z,101323.97
2018-01-21T17:38:29.476Z,101322.63
2018-01-21T17:40:55.266Z,101319.36
2018-01-21T17:43:21.084Z,101321.47
2018-01-21T17:45:46.873Z,101322.89
2018-01-21T17:48:12.686Z,101320.41
2018-01-21T17:50:38.473Z,101324.26
2018-01-21T17:53:04.602Z,101324.21
2018-01-21T17:55:30.414Z,101332.03
2018-01-21T17:57:56.245Z,101328.37
2018-01-21T18:00:22.036Z,101331.72
2018-01-21T18:02:47.829Z,101322.95
2018-01-21T18:05:13.810Z,101329.77
2018-01-21T18:07:39.795Z,101327.81
2018-01-21T18:10:05.707Z,101326.16
2018-01-21T18:12:31.529Z,101319.13
2018-01-21T18:14:57.310Z,101318.28
2018-01-21T18:17:23.171Z,101316.18
2018-01-21T18:19:49.104Z,101323.55
2018-01-21T18:22:14.938Z,101313.41
2018-01-21T18:24:40.733Z,101313.67
2018-01-21T18:27:06.556Z,101315.17
2018-01-21T18:29:32.446Z,101312.75
2018-01-21T18:31:58.229Z,101312.85
2018-01-21T18:34:24.077Z,101315.88
2018-01-21T18:36:49.993Z,101320.17
2018-01-21T18:39:15.996Z,101317.38
2018-01-21T18:41:42.206Z,101321.55
2018-01-21T18:44:08.287Z,101325.86
2018-01-21T18:46:34.086Z,101326.95
2018-01-21T18:48:59.950Z,101326.88
2018-01-21T18:51:25.774Z,101326.73
2018-01-21T18:53:51.565Z,101326.38
2018-01-21T18:56:17.342Z,101336.48
2018-01-21T18:58:46.580Z,101331.87
2018-01-21T19:01:12.418Z,101339.44
2018-01-21T19:03:38.234Z,101343.81
2018-01-21T19:06:04.010Z,101340.99
2018-01-21T19:08:29.834Z,101348.10
2018-01-21T19:10:55.721Z,101347.03
2018-01-21T19:13:21.548Z,101345.05
2018-01-21T19:15:47.336Z,101352.37
2018-01-21T19:18:13.195Z,101354.19
2018-01-21T19:20:39.041Z,101357.64
2018-01-21T19:23:04.878Z,101353.66
2018-01-21T19:25:30.903Z,101349.73
2018-01-21T19:27:56.706Z,101359.02
2018-01-21T19:30:22.497Z,101360.41
2018-01-21T19:32:48.422Z,101358.41
2018-01-21T19:35:14.221Z,101361.17
2018-01-21T19:37:40.078Z,101357.03
2018-01-21T19:43:09.074Z,101365.23
2018-01-21T19:45:35.134Z,101364.23
2018-01-21T19:48:00.978Z,101368.18
2018-01-21T19:50:26.766Z,101373.20
2018-01-21T19:52:52.701Z,101374.59
2018-01-21T19:55:18.521Z,101372.71
2018-01-21T19:57:44.462Z,101370.89
2018-01-21T20:00:10.261Z,101364.80
2018-01-21T20:02:36.067Z,101366.23
2018-01-21T20:05:01.899Z,101360.61
2018-01-21T20:07:27.870Z,101357.30
2018-01-21T20:09:53.688Z,101351.95
2018-01-21T20:12:19.524Z,101349.99
2018-01-21T20:14:45.337Z,101357.77
2018-01-21T20:17:16.154Z,101356.42
2018-01-21T20:19:46.836Z,101356.16
2018-01-21T20:22:14.137Z,101351.55
2018-01-21T20:24:41.599Z,101358.64
2018-01-21T20:27:07.699Z,101357.80
2018-01-21T20:29:34.639Z,101355.14
2018-01-21T20:32:01.117Z,101358.86
2018-01-21T20:34:28.543Z,101361.89
2018-01-21T20:36:55.496Z,101357.75
2018-01-21T20:39:23.009Z,101352.85
2018-01-21T20:41:51.178Z,101354.51
2018-01-21T20:44:16.974Z,101352.77
2018-01-21T20:46:46.299Z,101351.06
2018-01-21T20:49:12.199Z,101354.11
2018-01-21T20:51:46.151Z,101349.03
2018-01-21T20:56:52.285Z,101351.88
2018-01-21T20:59:18.340Z,101353.94
2018-01-21T21:01:44.398Z,101355.13
2018-01-21T21:04:10.294Z,101355.25
2018-01-21T21:06:37.295Z,101361.46
2018-01-21T21:09:03.414Z,101364.33
2018-01-21T21:11:29.431Z,101366.49
2018-01-21T21:13:55.488Z,101352.52
2018-01-21T21:16:21.270Z,101357.66
2018-01-21T21:18:47.061Z,101354.55
2018-01-21T21:21:15.654Z,101355.87
2018-01-21T21:23:41.590Z,101361.19
2018-01-21T21:26:10.521Z,101356.83
2018-01-21T21:28:36.465Z,101353.40
2018-01-21T21:31:03.793Z,101348.66
2018-01-21T21:33:30.143Z,101336.44
2018-01-21T21:35:57.412Z,101328.05
2018-01-21T21:38:24.648Z,101331.39
2018-01-21T21:40:50.795Z,101333.59
2018-01-21T21:43:16.765Z,101332.37
2018-01-21T21:45:46.255Z,101326.38
2018-01-21T21:48:18.162Z,101329.71
2018-01-21T21:50:49.738Z,101328.39
2018-01-21T21:53:15.939Z,101324.31
2018-01-21T21:55:41.736Z,101327.50
2018-01-21T21:58:07.559Z,101328.51
2018-01-21T22:00:33.356Z,101322.34
2018-01-21T22:02:59.178Z,101323.73
2018-01-21T22:05:24.958Z,101313.20
2018-01-21T22:07:50.783Z,101314.20
2018-01-21T22:10:16.578Z,101317.73
2018-01-21T22:12:42.397Z,101322.94
2018-01-21T22:15:08.235Z,101327.53
2018-01-21T22:17:34.010Z,101322.02
2018-01-21T22:19:59.846Z,101332.61
2018-01-21T22:22:25.678Z,101324.02
2018-01-21T22:24:51.461Z,101327.03
2018-01-21T22:27:17.248Z,101321.02
2018-01-21T22:29:43.030Z,101310.72
2018-01-21T22:32:08.833Z,101315.09
2018-01-21T22:34:34.648Z,101316.48
2018-01-21T22:37:00.469Z,101315.57
2018-01-21T22:39:26.289Z,101318.23
2018-01-21T22:41:52.209Z,101314.33
2018-01-21T22:44:18.030Z,101308.91
2018-01-21T22:46:43.809Z,101306.84
2018-01-21T22:49:09.591Z,101309.54
2018-01-21T22:51:35.372Z,101315.09
2018-01-21T22:54:01.150Z,101309.67
2018-01-21T22:56:26.968Z,101316.28
2018-01-21T22:58:52.834Z,101313.94
2018-01-21T23:01:18.626Z,101306.06
2018-01-21T23:03:44.461Z,101308.45
2018-01-21T23:06:10.259Z,101313.17
2018-01-21T23:08:36.089Z,101308.27
2018-01-21T23:11:01.926Z,101299.34
2018-01-21T23:13:27.730Z,101296.58
2018-01-21T23:15:53.520Z,101297.36
2018-01-21T23:18:19.345Z,101291.02
2018-01-21T23:20:51.286Z,101286.78
2018-01-21T23:23:17.178Z,101284.95
2018-01-21T23:25:42.955Z,101285.20
2018-01-21T23:28:08.769Z,101292.75
2018-01-21T23:30:34.558Z,101286.48
2018-01-21T23:33:00.379Z,101277.27
2018-01-21T23:35:26.157Z,101278.85
2018-01-21T23:37:51.979Z,101282.22
2018-01-21T23:40:17.802Z,101284.14
2018-01-21T23:42:43.625Z,101283.69
2018-01-21T23:45:09.402Z,101284.67
2018-01-21T23:47:35.181Z,101283.64
2018-01-21T23:50:00.960Z,101275.21
2018-01-21T23:52:26.746Z,101273.00
2018-01-21T23:54:52.601Z,101255.09
2018-01-21T23:57:18.378Z,101260.07
2018-01-21T23:59:44.164Z,101265.76
